createdAt,value
2018-06-29T00:00:25.550Z,0.00
2018-06-29T00:01:32.111Z,0.00
2018-06-29T00:02:39.648Z,0.00
2018-06-29T00:03:45.190Z,0.00
2018-06-29T00:04:51.744Z,0.00
2018-06-29T00:05:58.303Z,0.00
2018-06-29T00:07:04.835Z,0.00
2018-06-29T00:08:11.379Z,0.00
2018-06-29T00:09:17.929Z,0.00
2018-06-29T00:10:24.478Z,0.00
2018-06-29T00:11:31.037Z,0.00
2018-06-29T00:12:37.577Z,0.00
2018-06-29T00:13:44.128Z,0.00
2018-06-29T00:14:50.672Z,0.00
2018-06-29T00:15:57.219Z,0.00
2018-06-29T00:17:03.781Z,0.00
2018-06-29T00:18:10.324Z,0.00
2018-06-29T00:19:16.874Z,0.00
2018-06-29T00:20:23.414Z,0.00
2018-06-29T00:21:29.984Z,0.00
2018-06-29T00:22:36.521Z,0.00
2018-06-29T00:23:43.073Z,0.00
2018-06-29T00:24:49.613Z,0.00
2018-06-29T00:25:56.163Z,0.00
2018-06-29T00:27:02.724Z,0.00
2018-06-29T00:28:09.264Z,0.00
2018-06-29T00:29:15.905Z,0.00
2018-06-29T00:30:22.360Z,0.00
2018-06-29T00:31:28.922Z,0.00
2018-06-29T00:32:35.474Z,0.00
2018-06-29T00:33:42.020Z,0.00
2018-06-29T00:34:48.557Z,0.00
2018-06-29T00:35:55.110Z,0.00
2018-06-29T00:37:01.660Z,0.00
2018-06-29T00:38:08.218Z,0.00
2018-06-29T00:39:14.755Z,0.00
2018-06-29T00:40:21.306Z,0.00
2018-06-29T00:41:27.846Z,0.00
2018-06-29T00:42:34.409Z,0.00
2018-06-29T00:43:40.962Z,0.00
2018-06-29T00:44:47.644Z,0.00
2018-06-29T00:45:54.057Z,0.00
2018-06-29T00:47:00.605Z,0.00
2018-06-29T00:48:07.154Z,0.00
2018-06-29T00:49:13.707Z,0.00
2018-06-29T00:50:20.246Z,0.00
2018-06-29T00:51:26.792Z,0.00
2018-06-29T00:52:33.353Z,0.00
2018-06-29T00:53:39.907Z,0.00
2018-06-29T00:54:46.441Z,0.00
2018-06-29T00:55:52.990Z,0.00
2018-06-29T00:56:59.534Z,0.00
2018-06-29T00:58:06.093Z,0.00
2018-06-29T00:59:12.640Z,0.00
2018-06-29T01:00:19.177Z,0.00
2018-06-29T01:01:25.732Z,0.00
2018-06-29T01:02:32.277Z,0.00
2018-06-29T01:03:38.816Z,0.00
2018-06-29T01:04:45.366Z,0.00
2018-06-29T01:05:51.915Z,0.00
2018-06-29T01:06:58.475Z,0.00
2018-06-29T01:08:05.033Z,0.00
2018-06-29T01:09:11.572Z,0.00
2018-06-29T01:10:18.112Z,0.00
2018-06-29T01:11:24.670Z,0.00
2018-06-29T01:12:31.214Z,0.00
2018-06-29T01:13:37.755Z,0.00
2018-06-29T01:14:44.302Z,0.00
2018-06-29T01:15:50.860Z,0.00
2018-06-29T01:16:57.409Z,0.00
2018-06-29T01:18:03.961Z,0.00
2018-06-29T01:19:10.507Z,0.00
2018-06-29T01:20:17.044Z,0.00
2018-06-29T01:21:23.591Z,0.00
2018-06-29T01:22:30.138Z,0.00
2018-06-29T01:23:36.691Z,0.00
2018-06-29T01:24:43.243Z,0.00
2018-06-29T01:25:49.782Z,0.00
2018-06-29T01:26:56.342Z,0.00
2018-06-29T01:28:02.888Z,0.00
2018-06-29T01:29:09.449Z,0.00
2018-06-29T01:30:15.981Z,0.00
2018-06-29T01:31:22.524Z,0.00
2018-06-29T01:32:29.071Z,0.00
2018-06-29T01:33:35.625Z,0.00
2018-06-29T01:34:43.168Z,0.00
2018-06-29T01:35:48.707Z,0.00
2018-06-29T01:36:55.264Z,0.00
2018-06-29T01:38:01.893Z,0.00
2018-06-29T01:39:08.351Z,0.00
2018-06-29T01:40:14.905Z,0.00
2018-06-29T01:41:21.491Z,0.00
2018-06-29T01:42:27.977Z,0.00
2018-06-29T01:43:34.712Z,0.00
2018-06-29T01:44:41.066Z,0.00
2018-06-29T01:45:47.599Z,0.00
2018-06-29T01:46:54.143Z,0.00
2018-06-29T01:48:00.690Z,0.00
2018-06-29T01:49:07.247Z,0.00
2018-06-29T01:50:13.767Z,0.00
2018-06-29T01:51:20.302Z,0.00
2018-06-29T01:52:27.150Z,0.00
2018-06-29T01:53:33.387Z,0.00
2018-06-29T01:54:39.922Z,0.00
2018-06-29T01:55:46.459Z,0.00
2018-06-29T01:56:52.996Z,0.00
2018-06-29T01:57:59.546Z,0.00
2018-06-29T01:59:06.069Z,0.00
2018-06-29T02:00:12.610Z,0.00
2018-06-29T02:01:19.133Z,0.00
2018-06-29T02:02:25.672Z,0.00
2018-06-29T02:03:32.209Z,0.00
2018-06-29T02:04:38.749Z,0.00
2018-06-29T02:05:45.567Z,0.00
2018-06-29T02:06:51.802Z,0.00
2018-06-29T02:07:58.373Z,0.00
2018-06-29T02:09:04.869Z,0.00
2018-06-29T02:10:11.389Z,0.00
2018-06-29T02:11:17.916Z,0.00
2018-06-29T02:12:24.436Z,0.00
2018-06-29T02:13:31.964Z,0.00
2018-06-29T02:14:37.506Z,0.00
2018-06-29T02:15:44.035Z,0.00
2018-06-29T02:16:50.568Z,0.00
2018-06-29T02:17:57.093Z,0.00
2018-06-29T02:19:03.623Z,0.00
2018-06-29T02:20:10.153Z,0.00
2018-06-29T02:21:16.677Z,0.00
2018-06-29T02:22:23.205Z,0.00
2018-06-29T02:23:29.749Z,0.00
2018-06-29T02:24:36.278Z,0.00
2018-06-29T02:25:42.895Z,0.00
2018-06-29T02:26:49.326Z,0.00
2018-06-29T02:27:55.856Z,0.00
2018-06-29T02:29:02.387Z,0.00
2018-06-29T02:30:08.906Z,0.00
2018-06-29T02:31:15.442Z,0.00
2018-06-29T02:32:21.951Z,0.00
2018-06-29T02:33:28.477Z,0.00
2018-06-29T02:34:36.013Z,0.00
2018-06-29T02:35:41.537Z,0.00
2018-06-29T02:36:48.054Z,4.00
2018-06-29T02:37:54.577Z,4.00
2018-06-29T02:39:01.121Z,4.00
2018-06-29T02:40:07.632Z,0.00
2018-06-29T02:41:14.158Z,4.00
2018-06-29T02:42:20.658Z,4.00
2018-06-29T02:43:27.192Z,4.00
2018-06-29T02:44:33.702Z,8.00
2018-06-29T02:45:40.232Z,4.00
2018-06-29T02:46:46.756Z,8.00
2018-06-29T02:47:53.257Z,12.00
2018-06-29T02:48:59.779Z,8.00
2018-06-29T02:50:07.294Z,12.00
2018-06-29T02:51:12.911Z,16.00
2018-06-29T02:52:19.328Z,16.00
2018-06-29T02:53:25.843Z,20.00
2018-06-29T02:54:32.365Z,24.00
2018-06-29T02:55:38.893Z,24.00
2018-06-29T02:56:45.386Z,28.00
2018-06-29T02:57:51.903Z,28.00
2018-06-29T02:58:58.406Z,32.00
2018-06-29T03:00:04.909Z,32.00
2018-06-29T03:01:11.437Z,36.00
2018-06-29T03:02:17.930Z,40.00
2018-06-29T03:03:24.454Z,44.00
2018-06-29T03:04:30.959Z,48.00
2018-06-29T03:05:37.483Z,52.00
2018-06-29T03:06:44.003Z,56.00
2018-06-29T03:07:50.509Z,60.00
2018-06-29T03:08:57.020Z,68.00
2018-06-29T03:10:03.526Z,68.00
2018-06-29T03:11:10.049Z,72.00
2018-06-29T03:12:16.547Z,72.00
2018-06-29T03:13:23.059Z,80.00
2018-06-29T03:14:29.585Z,88.00
2018-06-29T03:15:36.092Z,92.00
2018-06-29T03:16:42.614Z,100.00
2018-06-29T03:17:49.119Z,112.00
2018-06-29T03:18:55.624Z,128.00
2018-06-29T03:20:02.140Z,136.00
2018-06-29T03:21:08.657Z,144.00
2018-06-29T03:22:15.649Z,152.00
2018-06-29T03:23:21.664Z,156.00
2018-06-29T03:24:28.185Z,156.00
2018-06-29T03:25:34.698Z,156.00
2018-06-29T03:26:41.206Z,156.00
2018-06-29T03:27:47.707Z,156.00
2018-06-29T03:28:54.224Z,160.00
2018-06-29T03:30:00.735Z,156.00
2018-06-29T03:31:07.260Z,152.00
2018-06-29T03:32:13.759Z,156.00
2018-06-29T03:33:20.281Z,156.00
2018-06-29T03:34:26.886Z,160.00
2018-06-29T03:35:33.303Z,168.00
2018-06-29T03:36:39.832Z,172.00
2018-06-29T03:37:46.333Z,180.00
2018-06-29T03:38:52.849Z,188.00
2018-06-29T03:39:59.356Z,204.00
2018-06-29T03:41:06.385Z,224.00
2018-06-29T03:42:12.398Z,240.00
2018-06-29T03:43:18.910Z,256.00
2018-06-29T03:44:25.416Z,268.00
2018-06-29T03:45:31.928Z,288.00
2018-06-29T03:46:38.456Z,296.00
2018-06-29T03:47:45.463Z,312.00
2018-06-29T03:48:51.674Z,328.00
2018-06-29T03:49:58.008Z,348.00
2018-06-29T03:51:04.506Z,368.00
2018-06-29T03:52:11.035Z,392.00
2018-06-29T03:53:17.534Z,416.00
2018-06-29T03:54:24.059Z,432.00
2018-06-29T03:55:30.568Z,448.00
2018-06-29T03:56:37.101Z,464.00
2018-06-29T03:57:43.614Z,492.00
2018-06-29T03:58:50.127Z,540.00
2018-06-29T03:59:56.635Z,596.00
2018-06-29T04:01:03.153Z,636.00
2018-06-29T04:02:09.685Z,680.00
2018-06-29T04:03:16.244Z,724.00
2018-06-29T04:04:22.725Z,752.00
2018-06-29T04:05:29.232Z,756.00
2018-06-29T04:06:35.755Z,764.00
2018-06-29T04:07:42.284Z,792.00
2018-06-29T04:08:48.890Z,852.00
2018-06-29T04:09:55.322Z,896.00
2018-06-29T04:11:01.831Z,904.00
2018-06-29T04:12:08.363Z,892.00
2018-06-29T04:13:15.372Z,884.00
2018-06-29T04:14:21.394Z,900.00
2018-06-29T04:15:27.921Z,948.00
2018-06-29T04:16:34.454Z,1020.00
2018-06-29T04:17:40.970Z,1096.00
2018-06-29T04:18:47.485Z,1124.00
2018-06-29T04:19:54.007Z,1132.00
2018-06-29T04:21:00.521Z,1160.00
2018-06-29T04:22:07.042Z,1212.00
2018-06-29T04:23:13.574Z,1256.00
2018-06-29T04:24:20.092Z,1276.00
2018-06-29T04:25:26.611Z,1280.00
2018-06-29T04:26:33.200Z,1264.00
2018-06-29T04:27:39.660Z,1228.00
2018-06-29T04:28:46.189Z,1208.00
2018-06-29T04:29:53.194Z,1228.00
2018-06-29T04:30:59.224Z,1308.00
2018-06-29T04:32:05.746Z,1476.00
2018-06-29T04:33:12.280Z,1724.00
2018-06-29T04:34:18.884Z,2008.00
2018-06-29T04:35:25.326Z,2324.00
2018-06-29T04:36:31.863Z,2624.00
2018-06-29T04:37:38.382Z,2868.00
2018-06-29T04:38:44.926Z,3188.00
2018-06-29T04:39:51.447Z,3596.00
2018-06-29T04:40:57.995Z,3984.00
2018-06-29T04:42:04.530Z,4420.00
2018-06-29T04:43:11.068Z,4748.00
2018-06-29T04:44:17.610Z,4952.00
2018-06-29T04:45:24.146Z,5100.00
2018-06-29T04:46:30.708Z,5304.00
2018-06-29T04:47:37.249Z,5472.00
2018-06-29T04:48:43.821Z,5508.00
2018-06-29T04:49:50.354Z,5308.00
2018-06-29T04:50:56.908Z,4968.00
2018-06-29T04:52:03.485Z,4612.00
2018-06-29T04:53:10.023Z,4412.00
2018-06-29T04:54:16.591Z,4324.00
2018-06-29T04:55:23.134Z,4428.00
2018-06-29T04:56:29.693Z,4700.00
2018-06-29T04:57:36.257Z,5060.00
2018-06-29T04:58:42.837Z,5440.00
2018-06-29T04:59:49.372Z,5904.00
2018-06-29T05:00:55.978Z,6320.00
2018-06-29T05:02:02.512Z,6612.00
2018-06-29T05:03:09.062Z,6660.00
2018-06-29T05:04:15.636Z,6696.00
2018-06-29T05:05:22.192Z,6708.00
2018-06-29T05:06:28.769Z,6632.00
2018-06-29T05:07:35.337Z,6592.00
2018-06-29T05:08:41.910Z,6576.00
2018-06-29T05:09:48.487Z,6588.00
2018-06-29T05:10:55.045Z,6748.00
2018-06-29T05:12:01.625Z,6996.00
2018-06-29T05:13:08.196Z,7272.00
2018-06-29T05:14:14.898Z,7468.00
2018-06-29T05:15:21.339Z,7748.00
2018-06-29T05:16:27.917Z,8144.00
2018-06-29T05:17:34.507Z,8676.00
2018-06-29T05:18:41.088Z,9268.00
2018-06-29T05:19:47.689Z,9828.00
2018-06-29T05:20:54.751Z,10036.00
2018-06-29T05:22:00.850Z,9960.00
2018-06-29T05:23:07.456Z,9756.00
2018-06-29T05:24:14.045Z,9488.00
2018-06-29T05:25:20.656Z,9388.00
2018-06-29T05:26:27.245Z,9336.00
2018-06-29T05:27:33.863Z,9340.00
2018-06-29T05:28:40.495Z,9592.00
2018-06-29T05:29:47.071Z,9756.00
2018-06-29T05:30:54.666Z,9436.00
2018-06-29T05:32:00.281Z,8536.00
2018-06-29T05:33:06.895Z,7468.00
2018-06-29T05:34:13.492Z,6688.00
2018-06-29T05:35:20.106Z,6180.00
2018-06-29T05:36:26.697Z,5824.00
2018-06-29T05:37:33.284Z,5816.00
2018-06-29T05:38:39.887Z,6068.00
2018-06-29T05:39:46.484Z,6172.00
2018-06-29T05:40:53.067Z,6116.00
2018-06-29T05:41:59.664Z,6012.00
2018-06-29T05:43:06.244Z,5732.00
2018-06-29T05:44:12.833Z,5360.00
2018-06-29T05:45:19.435Z,5144.00
2018-06-29T05:46:26.073Z,5076.00
2018-06-29T05:47:32.592Z,4928.00
2018-06-29T05:48:39.174Z,4832.00
2018-06-29T05:49:45.772Z,4804.00
2018-06-29T05:50:52.352Z,4796.00
2018-06-29T05:51:58.922Z,4812.00
2018-06-29T05:53:05.563Z,4836.00
2018-06-29T05:54:12.084Z,4828.00
2018-06-29T05:55:18.671Z,4764.00
2018-06-29T05:56:25.255Z,4616.00
2018-06-29T05:57:31.896Z,4508.00
2018-06-29T05:58:38.410Z,4572.00
2018-06-29T05:59:45.019Z,4736.00
2018-06-29T06:00:51.564Z,4812.00
2018-06-29T06:01:58.201Z,4796.00
2018-06-29T06:03:04.727Z,4772.00
2018-06-29T06:04:11.297Z,4752.00
2018-06-29T06:05:17.892Z,4732.00
2018-06-29T06:06:24.453Z,4708.00
2018-06-29T06:07:31.037Z,4692.00
2018-06-29T06:08:37.615Z,4684.00
2018-06-29T06:09:44.207Z,4684.00
2018-06-29T06:10:51.776Z,4700.00
2018-06-29T06:11:57.360Z,4712.00
2018-06-29T06:13:03.934Z,4724.00
2018-06-29T06:14:10.520Z,4728.00
2018-06-29T06:15:17.112Z,4732.00
2018-06-29T06:16:23.669Z,4736.00
2018-06-29T06:17:30.251Z,4752.00
2018-06-29T06:18:36.830Z,4768.00
2018-06-29T06:19:43.412Z,4796.00
2018-06-29T06:20:50.007Z,4816.00
2018-06-29T06:21:56.635Z,4832.00
2018-06-29T06:23:03.466Z,4840.00
2018-06-29T06:24:09.757Z,4840.00
2018-06-29T06:25:16.325Z,4852.00
2018-06-29T06:26:22.930Z,4868.00
2018-06-29T06:27:29.493Z,4892.00
2018-06-29T06:28:36.081Z,4900.00
2018-06-29T06:29:42.668Z,4900.00
2018-06-29T06:30:49.264Z,4900.00
2018-06-29T06:31:55.842Z,4896.00
2018-06-29T06:33:02.452Z,4900.00
2018-06-29T06:34:09.036Z,4916.00
2018-06-29T06:35:15.629Z,4940.00
2018-06-29T06:36:22.227Z,4972.00
2018-06-29T06:37:28.900Z,4992.00
2018-06-29T06:38:35.422Z,5016.00
2018-06-29T06:39:42.011Z,5040.00
2018-06-29T06:40:48.623Z,5064.00
2018-06-29T06:41:55.216Z,5092.00
2018-06-29T06:43:01.835Z,5136.00
2018-06-29T06:44:08.440Z,5192.00
2018-06-29T06:45:15.049Z,5256.00
2018-06-29T06:46:21.693Z,5308.00
2018-06-29T06:47:28.281Z,5332.00
2018-06-29T06:48:34.901Z,5348.00
2018-06-29T06:49:41.519Z,5340.00
2018-06-29T06:50:48.143Z,5336.00
2018-06-29T06:51:54.766Z,5352.00
2018-06-29T06:53:01.393Z,5360.00
2018-06-29T06:54:08.007Z,5388.00
2018-06-29T06:55:14.638Z,5408.00
2018-06-29T06:56:21.289Z,5448.00
2018-06-29T06:57:27.917Z,5468.00
2018-06-29T06:58:34.612Z,5492.00
2018-06-29T06:59:41.187Z,5504.00
2018-06-29T07:00:48.548Z,5520.00
2018-06-29T07:01:54.478Z,5572.00
2018-06-29T07:03:01.106Z,5632.00
2018-06-29T07:04:07.748Z,5780.00
2018-06-29T07:05:14.393Z,5900.00
2018-06-29T07:06:21.035Z,5928.00
2018-06-29T07:07:27.678Z,5896.00
2018-06-29T07:08:34.316Z,5892.00
2018-06-29T07:09:40.975Z,5940.00
2018-06-29T07:10:47.631Z,5960.00
2018-06-29T07:11:54.272Z,5956.00
2018-06-29T07:13:00.924Z,5944.00
2018-06-29T07:14:07.577Z,5952.00
2018-06-29T07:15:14.236Z,5920.00
2018-06-29T07:16:20.887Z,5928.00
2018-06-29T07:17:27.542Z,5904.00
2018-06-29T07:18:34.189Z,5884.00
2018-06-29T07:19:40.850Z,5900.00
2018-06-29T07:20:47.543Z,5908.00
2018-06-29T07:21:54.173Z,5920.00
2018-06-29T07:23:00.831Z,5920.00
2018-06-29T07:24:07.495Z,5960.00
2018-06-29T07:25:14.161Z,6052.00
2018-06-29T07:26:20.822Z,6228.00
2018-06-29T07:27:27.485Z,6492.00
2018-06-29T07:28:34.148Z,6688.00
2018-06-29T07:29:40.812Z,6620.00
2018-06-29T07:30:47.474Z,6604.00
2018-06-29T07:31:54.143Z,6576.00
2018-06-29T07:33:00.800Z,6664.00
2018-06-29T07:34:07.478Z,6728.00
2018-06-29T07:35:14.149Z,6752.00
2018-06-29T07:36:20.813Z,6872.00
2018-06-29T07:37:27.498Z,6944.00
2018-06-29T07:38:34.209Z,7048.00
2018-06-29T07:39:40.849Z,7256.00
2018-06-29T07:40:47.521Z,7684.00
2018-06-29T07:41:54.286Z,7916.00
2018-06-29T07:43:00.894Z,7740.00
2018-06-29T07:44:07.580Z,7336.00
2018-06-29T07:45:14.263Z,7076.00
2018-06-29T07:46:20.954Z,7072.00
2018-06-29T07:47:27.652Z,7112.00
2018-06-29T07:48:34.348Z,7016.00
2018-06-29T07:49:41.033Z,7004.00
2018-06-29T07:50:47.718Z,7048.00
2018-06-29T07:51:54.417Z,7308.00
2018-06-29T07:53:01.122Z,7920.00
2018-06-29T07:54:07.899Z,8188.00
2018-06-29T07:55:14.535Z,8144.00
2018-06-29T07:56:21.235Z,7620.00
2018-06-29T07:57:27.940Z,7056.00
2018-06-29T07:58:34.725Z,7040.00
2018-06-29T07:59:41.343Z,7088.00
2018-06-29T08:00:48.051Z,7092.00
2018-06-29T08:01:54.758Z,7068.00
2018-06-29T08:03:01.563Z,7052.00
2018-06-29T08:04:08.163Z,7060.00
2018-06-29T08:05:14.874Z,7132.00
2018-06-29T08:06:21.589Z,7200.00
2018-06-29T08:07:28.298Z,7212.00
2018-06-29T08:08:35.018Z,7248.00
2018-06-29T08:09:41.725Z,7288.00
2018-06-29T08:10:48.451Z,6844.00
2018-06-29T08:11:55.166Z,6376.00
2018-06-29T08:13:01.906Z,6168.00
2018-06-29T08:14:08.619Z,5968.00
2018-06-29T08:15:15.337Z,5904.00
2018-06-29T08:16:22.054Z,6048.00
2018-06-29T08:17:28.787Z,6236.00
2018-06-29T08:18:35.492Z,6364.00
2018-06-29T08:19:42.197Z,6628.00
2018-06-29T08:20:48.972Z,6852.00
2018-06-29T08:21:55.631Z,7016.00
2018-06-29T08:23:02.356Z,7536.00
2018-06-29T08:24:09.075Z,7488.00
2018-06-29T08:25:15.894Z,7408.00
2018-06-29T08:26:22.502Z,6880.00
2018-06-29T08:27:29.231Z,7224.00
2018-06-29T08:28:35.964Z,7816.00
2018-06-29T08:29:42.694Z,7876.00
2018-06-29T08:30:49.399Z,7840.00
2018-06-29T08:31:56.111Z,7700.00
2018-06-29T08:33:02.838Z,7636.00
2018-06-29T08:34:09.576Z,7720.00
2018-06-29T08:35:16.296Z,7944.00
2018-06-29T08:36:23.033Z,7376.00
2018-06-29T08:37:29.775Z,6912.00
2018-06-29T08:38:36.542Z,7212.00
2018-06-29T08:39:43.249Z,7476.00
2018-06-29T08:40:49.985Z,7952.00
2018-06-29T08:41:56.706Z,7996.00
2018-06-29T08:43:03.451Z,7972.00
2018-06-29T08:44:11.226Z,7916.00
2018-06-29T08:45:16.938Z,7948.00
2018-06-29T08:46:23.671Z,7864.00
2018-06-29T08:47:30.412Z,7896.00
2018-06-29T08:48:37.173Z,8060.00
2018-06-29T08:49:43.998Z,8200.00
2018-06-29T08:50:50.663Z,8208.00
2018-06-29T08:51:57.430Z,8120.00
2018-06-29T08:53:04.162Z,8072.00
2018-06-29T08:54:10.927Z,8172.00
2018-06-29T08:55:17.670Z,8284.00
2018-06-29T08:56:24.426Z,8476.00
2018-06-29T08:57:31.194Z,8604.00
2018-06-29T08:58:37.962Z,8632.00
2018-06-29T08:59:45.712Z,8548.00
2018-06-29T09:00:51.472Z,8540.00
2018-06-29T09:01:58.229Z,8560.00
2018-06-29T09:03:04.999Z,8568.00
2018-06-29T09:04:11.772Z,8500.00
2018-06-29T09:05:18.527Z,8436.00
2018-06-29T09:06:25.285Z,8440.00
2018-06-29T09:07:32.057Z,8648.00
2018-06-29T09:08:38.833Z,8796.00
2018-06-29T09:09:45.604Z,8764.00
2018-06-29T09:10:52.438Z,8680.00
2018-06-29T09:11:59.164Z,8840.00
2018-06-29T09:13:05.933Z,9064.00
2018-06-29T09:14:12.702Z,9036.00
2018-06-29T09:15:19.492Z,8808.00
2018-06-29T09:16:26.274Z,8756.00
2018-06-29T09:17:33.054Z,8704.00
2018-06-29T09:18:39.859Z,8488.00
2018-06-29T09:19:46.629Z,8168.00
2018-06-29T09:20:53.450Z,7856.00
2018-06-29T09:22:00.221Z,7704.00
2018-06-29T09:23:07.009Z,7644.00
2018-06-29T09:24:13.891Z,7676.00
2018-06-29T09:25:20.600Z,7856.00
2018-06-29T09:26:27.362Z,7992.00
2018-06-29T09:27:34.135Z,7992.00
2018-06-29T09:28:40.912Z,7872.00
2018-06-29T09:29:47.692Z,7824.00
2018-06-29T09:30:54.495Z,7740.00
2018-06-29T09:32:01.239Z,7644.00
2018-06-29T09:33:08.025Z,7540.00
2018-06-29T09:34:14.794Z,7524.00
2018-06-29T09:35:21.567Z,7576.00
2018-06-29T09:36:28.464Z,7636.00
2018-06-29T09:37:35.130Z,7576.00
2018-06-29T09:38:41.906Z,7388.00
2018-06-29T09:39:49.682Z,7124.00
2018-06-29T09:40:55.486Z,7048.00
2018-06-29T09:42:02.247Z,7032.00
2018-06-29T09:43:09.018Z,7032.00
2018-06-29T09:44:15.891Z,7024.00
2018-06-29T09:45:22.589Z,7012.00
2018-06-29T09:46:29.372Z,7004.00
2018-06-29T09:47:36.164Z,6988.00
2018-06-29T09:48:42.921Z,6996.00
2018-06-29T09:49:49.722Z,7008.00
2018-06-29T09:50:56.497Z,7012.00
2018-06-29T09:52:03.274Z,7016.00
2018-06-29T09:53:10.040Z,7024.00
2018-06-29T09:54:16.817Z,7048.00
2018-06-29T09:55:24.595Z,7080.00
2018-06-29T09:56:30.395Z,7092.00
2018-06-29T09:57:37.151Z,7100.00
2018-06-29T09:58:43.926Z,7120.00
2018-06-29T09:59:50.703Z,7160.00
2018-06-29T10:00:57.520Z,7200.00
2018-06-29T10:02:04.276Z,7216.00
2018-06-29T10:03:11.057Z,7220.00
2018-06-29T10:04:17.856Z,7220.00
2018-06-29T10:05:24.630Z,7228.00
2018-06-29T10:06:31.441Z,7244.00
2018-06-29T10:07:38.214Z,7268.00
2018-06-29T10:08:45.011Z,7276.00
2018-06-29T10:09:51.791Z,7288.00
2018-06-29T10:10:58.593Z,7304.00
2018-06-29T10:12:05.384Z,7324.00
2018-06-29T10:13:12.177Z,7340.00
2018-06-29T10:14:18.985Z,7348.00
2018-06-29T10:15:25.764Z,7356.00
2018-06-29T10:16:32.573Z,7340.00
2018-06-29T10:17:39.356Z,7332.00
2018-06-29T10:18:46.163Z,7332.00
2018-06-29T10:19:53.110Z,7372.00
2018-06-29T10:20:59.736Z,7416.00
2018-06-29T10:22:06.546Z,7468.00
2018-06-29T10:23:13.328Z,7492.00
2018-06-29T10:24:20.196Z,7496.00
2018-06-29T10:25:26.965Z,7500.00
2018-06-29T10:26:33.746Z,7500.00
2018-06-29T10:27:40.535Z,7508.00
2018-06-29T10:28:47.340Z,7520.00
2018-06-29T10:29:54.135Z,7552.00
2018-06-29T10:31:00.957Z,7584.00
2018-06-29T10:32:07.736Z,7592.00
2018-06-29T10:33:14.532Z,7580.00
2018-06-29T10:34:21.333Z,7588.00
2018-06-29T10:35:28.154Z,7616.00
2018-06-29T10:36:34.958Z,7632.00
2018-06-29T10:37:41.769Z,7652.00
2018-06-29T10:38:48.631Z,7656.00
2018-06-29T10:39:55.373Z,7676.00
2018-06-29T10:41:02.193Z,7708.00
2018-06-29T10:42:09.022Z,7756.00
2018-06-29T10:43:15.895Z,7788.00
2018-06-29T10:44:22.624Z,7832.00
2018-06-29T10:45:29.436Z,7872.00
2018-06-29T10:46:36.257Z,7908.00
2018-06-29T10:47:43.076Z,7940.00
2018-06-29T10:48:49.891Z,7968.00
2018-06-29T10:49:56.703Z,8016.00
2018-06-29T10:51:03.533Z,8060.00
2018-06-29T10:52:10.550Z,8104.00
2018-06-29T10:53:17.171Z,8144.00
2018-06-29T10:54:23.994Z,8152.00
2018-06-29T10:55:30.812Z,8140.00
2018-06-29T10:56:37.649Z,8128.00
2018-06-29T10:57:44.480Z,8128.00
2018-06-29T10:58:51.326Z,8128.00
2018-06-29T10:59:58.134Z,8152.00
2018-06-29T11:01:04.960Z,8200.00
2018-06-29T11:02:11.802Z,8268.00
2018-06-29T11:03:18.642Z,8356.00
2018-06-29T11:04:25.497Z,8432.00
2018-06-29T11:05:32.347Z,8620.00
2018-06-29T11:06:39.236Z,8860.00
2018-06-29T11:07:46.215Z,8900.00
2018-06-29T11:08:53.272Z,8940.00
2018-06-29T11:10:00.402Z,9044.00
2018-06-29T11:11:07.595Z,9132.00
2018-06-29T11:12:14.876Z,9324.00
2018-06-29T11:13:22.230Z,9636.00
2018-06-29T11:14:29.615Z,10536.00
2018-06-29T11:15:37.074Z,53472.00
2018-06-29T11:16:44.589Z,102784.00
2018-06-29T11:17:52.125Z,100416.00
2018-06-29T11:18:59.699Z,104448.00
2018-06-29T11:20:07.322Z,99936.00
2018-06-29T11:21:14.964Z,101120.00
2018-06-29T11:22:22.659Z,102752.00
2018-06-29T11:23:30.386Z,104096.00
2018-06-29T11:24:38.120Z,103712.00
2018-06-29T11:25:45.887Z,101952.00
2018-06-29T11:26:53.688Z,104000.00
2018-06-29T11:28:01.525Z,105952.00
2018-06-29T11:29:09.371Z,107968.00
2018-06-29T11:30:17.267Z,103872.00
2018-06-29T11:31:25.119Z,107808.00
2018-06-29T11:32:33.033Z,112992.00
2018-06-29T11:33:40.966Z,114368.00
2018-06-29T11:34:48.893Z,114240.00
2018-06-29T11:35:57.023Z,111552.00
2018-06-29T11:37:04.887Z,109952.00
2018-06-29T11:38:12.773Z,111488.00
2018-06-29T11:39:20.740Z,108384.00
2018-06-29T11:40:28.729Z,104928.00
2018-06-29T11:41:36.729Z,111552.00
2018-06-29T11:42:44.732Z,120000.00
2018-06-29T11:43:52.748Z,119904.00
2018-06-29T11:45:00.773Z,117824.00
2018-06-29T11:46:08.896Z,120192.00
2018-06-29T11:47:16.903Z,125248.00
2018-06-29T11:48:24.851Z,121024.00
2018-06-29T11:49:33.901Z,116192.00
2018-06-29T11:50:40.978Z,117856.00
2018-06-29T11:51:49.032Z,118784.00
2018-06-29T11:52:57.112Z,116384.00
2018-06-29T11:54:05.221Z,118400.00
2018-06-29T11:55:13.310Z,120160.00
2018-06-29T11:56:21.423Z,120608.00
2018-06-29T11:57:29.556Z,119072.00
2018-06-29T11:58:37.684Z,118144.00
2018-06-29T11:59:45.822Z,120320.00
2018-06-29T12:00:53.963Z,122048.00
2018-06-29T12:02:02.107Z,117440.00
2018-06-29T12:03:10.254Z,116416.00
2018-06-29T12:04:18.417Z,119456.00
2018-06-29T12:05:26.570Z,123616.00
2018-06-29T12:06:34.728Z,122624.00
2018-06-29T12:07:42.887Z,120384.00
2018-06-29T12:08:51.074Z,123168.00
2018-06-29T12:09:59.259Z,125728.00
2018-06-29T12:11:07.456Z,123200.00
2018-06-29T12:12:15.891Z,122592.00
2018-06-29T12:13:23.880Z,120160.00
2018-06-29T12:14:32.107Z,123232.00
2018-06-29T12:15:40.336Z,122464.00
2018-06-29T12:16:48.606Z,117824.00
2018-06-29T12:17:56.815Z,114272.00
2018-06-29T12:19:05.078Z,115136.00
2018-06-29T12:20:13.321Z,114784.00
2018-06-29T12:21:21.578Z,113280.00
2018-06-29T12:22:29.836Z,113760.00
2018-06-29T12:23:38.105Z,116768.00
2018-06-29T12:24:46.385Z,119840.00
2018-06-29T12:25:54.648Z,121792.00
2018-06-29T12:27:02.920Z,120896.00
2018-06-29T12:28:11.188Z,109856.00
2018-06-29T12:29:19.456Z,108416.00
2018-06-29T12:30:27.691Z,117760.00
2018-06-29T12:31:35.952Z,120576.00
2018-06-29T12:32:44.689Z,120064.00
2018-06-29T12:33:52.408Z,118848.00
2018-06-29T12:35:00.649Z,115200.00
2018-06-29T12:36:08.863Z,111072.00
2018-06-29T12:37:17.092Z,112928.00
2018-06-29T12:38:25.294Z,115072.00
2018-06-29T12:39:33.527Z,114336.00
2018-06-29T12:40:41.712Z,115808.00
2018-06-29T12:41:49.923Z,115264.00
2018-06-29T12:42:58.119Z,114016.00
2018-06-29T12:44:06.324Z,113696.00
2018-06-29T12:45:14.508Z,112544.00
2018-06-29T12:46:22.681Z,106176.00
2018-06-29T12:47:30.867Z,105376.00
2018-06-29T12:48:39.042Z,104704.00
2018-06-29T12:49:47.209Z,103552.00
2018-06-29T12:50:55.374Z,101472.00
2018-06-29T12:52:03.535Z,102752.00
2018-06-29T12:53:11.681Z,109536.00
2018-06-29T12:54:19.832Z,113120.00
2018-06-29T12:55:27.985Z,109856.00
2018-06-29T12:56:36.129Z,109184.00
2018-06-29T12:57:44.304Z,109792.00
2018-06-29T12:58:52.387Z,109376.00
2018-06-29T13:00:00.527Z,109056.00
2018-06-29T13:01:08.650Z,111808.00
2018-06-29T13:02:16.807Z,113632.00
2018-06-29T13:03:24.947Z,112448.00
2018-06-29T13:04:33.083Z,110944.00
2018-06-29T13:05:41.303Z,109216.00
2018-06-29T13:06:49.402Z,109632.00
2018-06-29T13:07:57.566Z,110720.00
2018-06-29T13:09:05.742Z,107840.00
2018-06-29T13:10:14.919Z,104800.00
2018-06-29T13:11:22.099Z,105472.00
2018-06-29T13:12:30.245Z,109376.00
2018-06-29T13:13:38.395Z,107904.00
2018-06-29T13:14:46.535Z,103328.00
2018-06-29T13:15:54.686Z,104928.00
2018-06-29T13:17:02.891Z,107008.00
2018-06-29T13:18:10.942Z,105088.00
2018-06-29T13:19:19.058Z,106912.00
2018-06-29T13:20:27.189Z,108896.00
2018-06-29T13:21:35.340Z,107968.00
2018-06-29T13:22:43.438Z,107200.00
2018-06-29T13:23:51.565Z,106080.00
2018-06-29T13:24:59.746Z,105824.00
2018-06-29T13:26:07.811Z,107104.00
2018-06-29T13:27:15.909Z,105568.00
2018-06-29T13:28:24.078Z,104256.00
2018-06-29T13:29:32.132Z,101888.00
2018-06-29T13:30:40.230Z,98272.00
2018-06-29T13:31:48.332Z,96160.00
2018-06-29T13:32:56.412Z,99808.00
2018-06-29T13:34:04.482Z,99328.00
2018-06-29T13:35:12.543Z,99808.00
2018-06-29T13:36:20.611Z,102752.00
2018-06-29T13:37:28.645Z,102528.00
2018-06-29T13:38:36.688Z,102464.00
2018-06-29T13:39:44.727Z,102080.00